sensor_id;sensor_type;location;lat;lon;timestamp;temperature;humidity
15765;DHT22;7983;50.744;7.086;2022-10-18T00:02:16;18.00;99.90
15765;DHT22;7983;50.744;7.086;2022-10-18T00:04:44;18.00;99.90
15765;DHT22;7983;50.744;7.086;2022-10-18T00:07:15;18.00;99.90
15765;DHT22;7983;50.744;7.086;2022-10-18T00:09:40;18.00;99.90
15765;DHT22;7983;50.744;7.086;2022-10-18T00:12:07;18.10;99.90
15765;DHT22;7983;50.744;7.086;2022-10-18T00:14:32;18.10;99.90
15765;DHT22;7983;50.744;7.086;2022-10-18T00:16:58;18.10;99.90
15765;DHT22;7983;50.744;7.086;2022-10-18T00:19:23;18.10;99.90
15765;DHT22;7983;50.744;7.086;2022-10-18T00:21:49;18.10;99.90
15765;DHT22;7983;50.744;7.086;2022-10-18T00:24:15;18.00;99.90
15765;DHT22;7983;50.744;7.086;2022-10-18T00:26:43;18.10;99.90
15765;DHT22;7983;50.744;7.086;2022-10-18T00:29:13;18.10;99.90
15765;DHT22;7983;50.744;7.086;2022-10-18T00:31:42;18.10;99.90
15765;DHT22;7983;50.744;7.086;2022-10-18T00:34:14;18.10;99.90
15765;DHT22;7983;50.744;7.086;2022-10-18T00:36:43;18.10;99.90
15765;DHT22;7983;50.744;7.086;2022-10-18T00:39:15;18.10;99.90
15765;DHT22;7983;50.744;7.086;2022-10-18T00:41:44;18.10;99.90
15765;DHT22;7983;50.744;7.086;2022-10-18T00:46:45;18.10;99.90
15765;DHT22;7983;50.744;7.086;2022-10-18T00:49:16;18.10;99.90
15765;DHT22;7983;50.744;7.086;2022-10-18T00:52:00;18.10;99.90
15765;DHT22;7983;50.744;7.086;2022-10-18T00:54:32;18.10;99.90
15765;DHT22;7983;50.744;7.086;2022-10-18T00:57:00;18.10;99.90
15765;DHT22;7983;50.744;7.086;2022-10-18T00:59:26;18.10;99.90
15765;DHT22;7983;50.744;7.086;2022-10-18T01:01:51;18.10;99.90
15765;DHT22;7983;50.744;7.086;2022-10-18T01:04:21;18.10;99.90
15765;DHT22;7983;50.744;7.086;2022-10-18T01:09:40;18.10;99.90
15765;DHT22;7983;50.744;7.086;2022-10-18T01:18:24;18.10;99.90
15765;DHT22;7983;50.744;7.086;2022-10-18T01:29:40;18.00;99.90
15765;DHT22;7983;50.744;7.086;2022-10-18T01:32:01;18.00;99.90
15765;DHT22;7983;50.744;7.086;2022-10-18T01:34:31;18.00;99.90
15765;DHT22;7983;50.744;7.086;2022-10-18T01:37:08;18.00;99.90
15765;DHT22;7983;50.744;7.086;2022-10-18T01:39:37;18.10;99.90
15765;DHT22;7983;50.744;7.086;2022-10-18T01:42:08;18.00;99.90
15765;DHT22;7983;50.744;7.086;2022-10-18T01:44:36;18.00;99.90
15765;DHT22;7983;50.744;7.086;2022-10-18T01:47:08;18.00;99.90
15765;DHT22;7983;50.744;7.086;2022-10-18T01:49:34;18.00;99.90
15765;DHT22;7983;50.744;7.086;2022-10-18T01:52:00;18.00;99.90
15765;DHT22;7983;50.744;7.086;2022-10-18T01:54:32;18.00;99.90
15765;DHT22;7983;50.744;7.086;2022-10-18T02:05:28;18.00;99.90
15765;DHT22;7983;50.744;7.086;2022-10-18T02:10:45;18.00;99.90
15765;DHT22;7983;50.744;7.086;2022-10-18T02:13:15;18.00;99.90
15765;DHT22;7983;50.744;7.086;2022-10-18T02:15:45;18.00;99.90
15765;DHT22;7983;50.744;7.086;2022-10-18T02:18:23;17.90;99.90
15765;DHT22;7983;50.744;7.086;2022-10-18T02:20:50;18.00;99.90
15765;DHT22;7983;50.744;7.086;2022-10-18T02:23:20;17.90;99.90
15765;DHT22;7983;50.744;7.086;2022-10-18T02:25:49;17.90;99.90
15765;DHT22;7983;50.744;7.086;2022-10-18T02:28:15;17.90;99.90
15765;DHT22;7983;50.744;7.086;2022-10-18T02:33:44;17.90;99.90
15765;DHT22;7983;50.744;7.086;2022-10-18T02:36:35;17.90;99.90
15765;DHT22;7983;50.744;7.086;2022-10-18T02:39:10;17.90;99.90
15765;DHT22;7983;50.744;7.086;2022-10-18T02:41:41;17.90;99.90
15765;DHT22;7983;50.744;7.086;2022-10-18T02:44:08;17.90;99.90
15765;DHT22;7983;50.744;7.086;2022-10-18T02:46:34;17.90;99.90
15765;DHT22;7983;50.744;7.086;2022-10-18T02:49:02;17.80;99.90
15765;DHT22;7983;50.744;7.086;2022-10-18T02:51:28;17.90;99.90
15765;DHT22;7983;50.744;7.086;2022-10-18T02:53:58;17.90;99.90
15765;DHT22;7983;50.744;7.086;2022-10-18T02:56:24;17.90;99.90
15765;DHT22;7983;50.744;7.086;2022-10-18T02:58:49;17.80;99.90
15765;DHT22;7983;50.744;7.086;2022-10-18T03:01:15;17.90;99.90
15765;DHT22;7983;50.744;7.086;2022-10-18T03:03:41;17.80;99.90
15765;DHT22;7983;50.744;7.086;2022-10-18T03:06:09;17.80;99.90
15765;DHT22;7983;50.744;7.086;2022-10-18T03:08:35;17.80;99.90
15765;DHT22;7983;50.744;7.086;2022-10-18T03:11:01;17.80;99.90
15765;DHT22;7983;50.744;7.086;2022-10-18T03:13:26;17.80;99.90
15765;DHT22;7983;50.744;7.086;2022-10-18T03:15:54;17.80;99.90
15765;DHT22;7983;50.744;7.086;2022-10-18T03:18:20;17.80;99.90
15765;DHT22;7983;50.744;7.086;2022-10-18T03:20:48;17.70;99.90
15765;DHT22;7983;50.744;7.086;2022-10-18T03:23:13;17.70;99.90
15765;DHT22;7983;50.744;7.086;2022-10-18T03:25:39;17.70;99.90
15765;DHT22;7983;50.744;7.086;2022-10-18T03:28:04;17.70;99.90
15765;DHT22;7983;50.744;7.086;2022-10-18T03:30:30;17.70;99.90
15765;DHT22;7983;50.744;7.086;2022-10-18T03:32:56;17.70;99.90
15765;DHT22;7983;50.744;7.086;2022-10-18T03:35:21;17.70;99.90
15765;DHT22;7983;50.744;7.086;2022-10-18T03:37:47;17.70;99.90
15765;DHT22;7983;50.744;7.086;2022-10-18T03:40:13;17.70;99.90
15765;DHT22;7983;50.744;7.086;2022-10-18T03:42:39;17.70;99.90
15765;DHT22;7983;50.744;7.086;2022-10-18T03:45:07;17.70;99.90
15765;DHT22;7983;50.744;7.086;2022-10-18T03:47:35;17.70;99.90
15765;DHT22;7983;50.744;7.086;2022-10-18T03:50:02;17.70;99.90
15765;DHT22;7983;50.744;7.086;2022-10-18T03:52:28;17.70;99.90
15765;DHT22;7983;50.744;7.086;2022-10-18T03:54:56;17.70;99.90
15765;DHT22;7983;50.744;7.086;2022-10-18T03:57:26;17.70;99.90
15765;DHT22;7983;50.744;7.086;2022-10-18T03:59:52;17.70;99.90
15765;DHT22;7983;50.744;7.086;2022-10-18T04:02:17;17.70;99.90
15765;DHT22;7983;50.744;7.086;2022-10-18T04:04:43;17.70;99.90
15765;DHT22;7983;50.744;7.086;2022-10-18T04:07:11;17.70;99.90
15765;DHT22;7983;50.744;7.086;2022-10-18T04:09:41;17.70;99.90
15765;DHT22;7983;50.744;7.086;2022-10-18T04:12:09;17.70;99.90
15765;DHT22;7983;50.744;7.086;2022-10-18T04:14:37;17.70;99.90
15765;DHT22;7983;50.744;7.086;2022-10-18T04:17:02;17.70;99.90
15765;DHT22;7983;50.744;7.086;2022-10-18T04:19:29;17.70;99.90
15765;DHT22;7983;50.744;7.086;2022-10-18T04:21:57;17.70;99.90
15765;DHT22;7983;50.744;7.086;2022-10-18T04:24:25;17.70;99.90
15765;DHT22;7983;50.744;7.086;2022-10-18T04:26:53;17.70;99.90
15765;DHT22;7983;50.744;7.086;2022-10-18T04:29:19;17.70;99.90
15765;DHT22;7983;50.744;7.086;2022-10-18T04:31:49;17.70;99.90
15765;DHT22;7983;50.744;7.086;2022-10-18T04:34:14;17.70;99.90
15765;DHT22;7983;50.744;7.086;2022-10-18T04:36:40;17.70;99.90
15765;DHT22;7983;50.744;7.086;2022-10-18T04:39:06;17.70;99.90
15765;DHT22;7983;50.744;7.086;2022-10-18T04:41:33;17.70;99.90
15765;DHT22;7983;50.744;7.086;2022-10-18T04:44:01;17.70;99.90
15765;DHT22;7983;50.744;7.086;2022-10-18T04:46:27;17.70;99.90
15765;DHT22;7983;50.744;7.086;2022-10-18T04:48:53;17.70;99.90
15765;DHT22;7983;50.744;7.086;2022-10-18T04:51:20;17.70;99.90
15765;DHT22;7983;50.744;7.086;2022-10-18T04:53:48;17.70;99.90
15765;DHT22;7983;50.744;7.086;2022-10-18T04:56:18;17.70;99.90
15765;DHT22;7983;50.744;7.086;2022-10-18T04:58:46;17.70;99.90
15765;DHT22;7983;50.744;7.086;2022-10-18T05:01:12;17.70;99.90
15765;DHT22;7983;50.744;7.086;2022-10-18T05:03:38;17.70;99.90
15765;DHT22;7983;50.744;7.086;2022-10-18T05:06:06;17.70;99.90
15765;DHT22;7983;50.744;7.086;2022-10-18T05:08:33;17.70;99.90
15765;DHT22;7983;50.744;7.086;2022-10-18T05:11:01;17.70;99.90
15765;DHT22;7983;50.744;7.086;2022-10-18T05:13:27;17.70;99.90
15765;DHT22;7983;50.744;7.086;2022-10-18T05:15:53;17.70;99.90
15765;DHT22;7983;50.744;7.086;2022-10-18T05:18:21;17.70;99.90
15765;DHT22;7983;50.744;7.086;2022-10-18T05:20:47;17.70;99.90
15765;DHT22;7983;50.744;7.086;2022-10-18T05:23:12;17.70;99.90
15765;DHT22;7983;50.744;7.086;2022-10-18T05:25:41;17.70;99.90
15765;DHT22;7983;50.744;7.086;2022-10-18T05:28:10;17.70;99.90
15765;DHT22;7983;50.744;7.086;2022-10-18T05:30:37;17.70;99.90
15765;DHT22;7983;50.744;7.086;2022-10-18T05:33:06;17.70;99.90
15765;DHT22;7983;50.744;7.086;2022-10-18T05:35:32;17.70;99.90
15765;DHT22;7983;50.744;7.086;2022-10-18T05:37:57;17.70;99.90
15765;DHT22;7983;50.744;7.086;2022-10-18T05:40:23;17.70;99.90
15765;DHT22;7983;50.744;7.086;2022-10-18T05:42:54;17.70;99.90
15765;DHT22;7983;50.744;7.086;2022-10-18T05:45:20;17.70;99.90
15765;DHT22;7983;50.744;7.086;2022-10-18T05:47:47;17.70;99.90
15765;DHT22;7983;50.744;7.086;2022-10-18T05:50:13;17.70;99.90
15765;DHT22;7983;50.744;7.086;2022-10-18T05:52:44;17.70;99.90
15765;DHT22;7983;50.744;7.086;2022-10-18T05:55:11;17.70;99.90
15765;DHT22;7983;50.744;7.086;2022-10-18T05:57:39;17.70;99.90
15765;DHT22;7983;50.744;7.086;2022-10-18T06:00:05;17.70;99.90
15765;DHT22;7983;50.744;7.086;2022-10-18T06:02:31;17.70;99.90
15765;DHT22;7983;50.744;7.086;2022-10-18T06:04:59;17.70;99.90
15765;DHT22;7983;50.744;7.086;2022-10-18T06:07:24;17.70;99.90
15765;DHT22;7983;50.744;7.086;2022-10-18T06:09:50;17.70;99.90
15765;DHT22;7983;50.744;7.086;2022-10-18T06:12:17;17.70;99.90
15765;DHT22;7983;50.744;7.086;2022-10-18T06:14:47;17.80;99.90
15765;DHT22;7983;50.744;7.086;2022-10-18T06:17:15;17.80;99.90
15765;DHT22;7983;50.744;7.086;2022-10-18T06:19:41;17.70;99.90
15765;DHT22;7983;50.744;7.086;2022-10-18T06:22:11;17.70;99.90
15765;DHT22;7983;50.744;7.086;2022-10-18T06:24:37;17.80;99.90
15765;DHT22;7983;50.744;7.086;2022-10-18T06:27:03;17.80;99.90
15765;DHT22;7983;50.744;7.086;2022-10-18T06:29:36;17.70;99.90
15765;DHT22;7983;50.744;7.086;2022-10-18T06:32:05;17.80;99.90
15765;DHT22;7983;50.744;7.086;2022-10-18T06:34:32;17.80;99.90
15765;DHT22;7983;50.744;7.086;2022-10-18T06:36:57;17.80;99.90
15765;DHT22;7983;50.744;7.086;2022-10-18T06:39:23;17.80;99.90
15765;DHT22;7983;50.744;7.086;2022-10-18T06:41:52;17.80;99.90
15765;DHT22;7983;50.744;7.086;2022-10-18T06:44:20;17.70;99.90
15765;DHT22;7983;50.744;7.086;2022-10-18T06:46:47;17.70;99.90
15765;DHT22;7983;50.744;7.086;2022-10-18T06:49:16;17.70;99.90
15765;DHT22;7983;50.744;7.086;2022-10-18T06:51:42;17.70;99.90
15765;DHT22;7983;50.744;7.086;2022-10-18T06:54:10;17.70;99.90
15765;DHT22;7983;50.744;7.086;2022-10-18T06:56:38;17.70;99.90
15765;DHT22;7983;50.744;7.086;2022-10-18T06:59:04;17.70;99.90
15765;DHT22;7983;50.744;7.086;2022-10-18T07:01:32;17.80;99.90
15765;DHT22;7983;50.744;7.086;2022-10-18T07:03:58;17.70;99.90
15765;DHT22;7983;50.744;7.086;2022-10-18T07:06:26;17.80;99.90
15765;DHT22;7983;50.744;7.086;2022-10-18T07:08:54;17.70;99.90
15765;DHT22;7983;50.744;7.086;2022-10-18T07:11:22;17.70;99.90
15765;DHT22;7983;50.744;7.086;2022-10-18T07:13:54;17.70;99.90
15765;DHT22;7983;50.744;7.086;2022-10-18T07:16:25;17.70;99.90
15765;DHT22;7983;50.744;7.086;2022-10-18T07:18:53;17.70;99.90
15765;DHT22;7983;50.744;7.086;2022-10-18T07:21:24;17.70;99.90
15765;DHT22;7983;50.744;7.086;2022-10-18T07:23:52;17.70;99.90
15765;DHT22;7983;50.744;7.086;2022-10-18T07:26:24;17.70;99.90
15765;DHT22;7983;50.744;7.086;2022-10-18T07:28:53;17.70;99.90
15765;DHT22;7983;50.744;7.086;2022-10-18T07:31:24;17.70;99.90
15765;DHT22;7983;50.744;7.086;2022-10-18T07:33:50;17.80;99.90
15765;DHT22;7983;50.744;7.086;2022-10-18T07:36:16;17.80;99.90
15765;DHT22;7983;50.744;7.086;2022-10-18T07:38:42;17.80;99.90
15765;DHT22;7983;50.744;7.086;2022-10-18T07:41:11;17.80;99.90
15765;DHT22;7983;50.744;7.086;2022-10-18T07:43:42;17.80;99.90
15765;DHT22;7983;50.744;7.086;2022-10-18T07:46:10;17.90;99.90
15765;DHT22;7983;50.744;7.086;2022-10-18T07:48:36;17.80;99.90
15765;DHT22;7983;50.744;7.086;2022-10-18T07:51:04;17.80;99.90
15765;DHT22;7983;50.744;7.086;2022-10-18T07:53:30;17.80;99.90
15765;DHT22;7983;50.744;7.086;2022-10-18T07:56:07;17.80;99.90
15765;DHT22;7983;50.744;7.086;2022-10-18T07:58:36;17.90;99.90
15765;DHT22;7983;50.744;7.086;2022-10-18T08:01:05;17.90;99.90
15765;DHT22;7983;50.744;7.086;2022-10-18T08:03:32;17.90;99.90
15765;DHT22;7983;50.744;7.086;2022-10-18T08:06:01;17.90;99.90
15765;DHT22;7983;50.744;7.086;2022-10-18T08:08:27;17.90;99.90
15765;DHT22;7983;50.744;7.086;2022-10-18T08:10:53;17.90;99.90
15765;DHT22;7983;50.744;7.086;2022-10-18T08:13:19;17.90;99.90
15765;DHT22;7983;50.744;7.086;2022-10-18T08:15:45;18.00;99.90
15765;DHT22;7983;50.744;7.086;2022-10-18T08:18:11;18.00;99.90
15765;DHT22;7983;50.744;7.086;2022-10-18T08:20:42;18.00;99.90
15765;DHT22;7983;50.744;7.086;2022-10-18T08:23:08;18.00;99.90
15765;DHT22;7983;50.744;7.086;2022-10-18T08:25:33;18.00;99.90
15765;DHT22;7983;50.744;7.086;2022-10-18T08:27:59;18.00;99.90
15765;DHT22;7983;50.744;7.086;2022-10-18T08:30:28;18.00;99.90
15765;DHT22;7983;50.744;7.086;2022-10-18T08:32:53;18.00;99.90
15765;DHT22;7983;50.744;7.086;2022-10-18T08:35:21;18.00;99.90
15765;DHT22;7983;50.744;7.086;2022-10-18T08:37:47;18.00;99.90
15765;DHT22;7983;50.744;7.086;2022-10-18T08:40:16;18.00;99.90
15765;DHT22;7983;50.744;7.086;2022-10-18T08:42:59;18.00;99.90
15765;DHT22;7983;50.744;7.086;2022-10-18T08:45:36;18.00;99.90
15765;DHT22;7983;50.744;7.086;2022-10-18T08:48:03;18.10;99.90
15765;DHT22;7983;50.744;7.086;2022-10-18T08:50:35;18.10;99.90
15765;DHT22;7983;50.744;7.086;2022-10-18T08:53:34;18.10;99.90
15765;DHT22;7983;50.744;7.086;2022-10-18T08:56:09;18.10;99.90
15765;DHT22;7983;50.744;7.086;2022-10-18T08:58:41;18.10;99.90
15765;DHT22;7983;50.744;7.086;2022-10-18T09:07:17;18.20;99.90
15765;DHT22;7983;50.744;7.086;2022-10-18T09:09:54;18.30;99.90
15765;DHT22;7983;50.744;7.086;2022-10-18T09:15:21;18.40;99.90
15765;DHT22;7983;50.744;7.086;2022-10-18T09:20:56;18.40;99.90
15765;DHT22;7983;50.744;7.086;2022-10-18T09:26:15;18.30;99.90
15765;DHT22;7983;50.744;7.086;2022-10-18T09:37:58;18.30;99.90
15765;DHT22;7983;50.744;7.086;2022-10-18T09:40:29;18.30;99.90
15765;DHT22;7983;50.744;7.086;2022-10-18T09:43:13;18.30;99.90
15765;DHT22;7983;50.744;7.086;2022-10-18T09:45:46;18.30;99.90
15765;DHT22;7983;50.744;7.086;2022-10-18T09:48:14;18.30;99.90
15765;DHT22;7983;50.744;7.086;2022-10-18T09:53:19;18.30;99.90
15765;DHT22;7983;50.744;7.086;2022-10-18T09:55:58;18.40;99.90
15765;DHT22;7983;50.744;7.086;2022-10-18T09:58:42;18.40;99.90
15765;DHT22;7983;50.744;7.086;2022-10-18T10:01:10;18.40;99.90
15765;DHT22;7983;50.744;7.086;2022-10-18T10:03:38;18.40;99.90
15765;DHT22;7983;50.744;7.086;2022-10-18T10:08:36;18.40;99.90
15765;DHT22;7983;50.744;7.086;2022-10-18T10:11:26;18.40;99.90
15765;DHT22;7983;50.744;7.086;2022-10-18T10:13:56;18.40;99.90
15765;DHT22;7983;50.744;7.086;2022-10-18T10:16:25;18.40;99.90
15765;DHT22;7983;50.744;7.086;2022-10-18T10:18:53;18.40;99.90
15765;DHT22;7983;50.744;7.086;2022-10-18T10:21:21;18.40;99.90
15765;DHT22;7983;50.744;7.086;2022-10-18T10:23:53;18.40;99.90
15765;DHT22;7983;50.744;7.086;2022-10-18T10:26:35;18.40;99.90
15765;DHT22;7983;50.744;7.086;2022-10-18T10:29:03;18.40;99.90
15765;DHT22;7983;50.744;7.086;2022-10-18T10:32:02;18.40;99.90
15765;DHT22;7983;50.744;7.086;2022-10-18T10:34:30;18.50;99.90
15765;DHT22;7983;50.744;7.086;2022-10-18T10:36:56;18.50;99.90
15765;DHT22;7983;50.744;7.086;2022-10-18T10:39:23;18.50;99.90
15765;DHT22;7983;50.744;7.086;2022-10-18T10:41:53;18.50;99.90
15765;DHT22;7983;50.744;7.086;2022-10-18T10:44:21;18.50;99.90
15765;DHT22;7983;50.744;7.086;2022-10-18T10:46:51;18.60;99.90
15765;DHT22;7983;50.744;7.086;2022-10-18T10:49:38;18.60;99.90
15765;DHT22;7983;50.744;7.086;2022-10-18T10:52:15;18.70;99.90
15765;DHT22;7983;50.744;7.086;2022-10-18T10:54:45;18.70;99.90
15765;DHT22;7983;50.744;7.086;2022-10-18T10:59:50;18.70;99.90
15765;DHT22;7983;50.744;7.086;2022-10-18T11:02:29;18.80;99.90
15765;DHT22;7983;50.744;7.086;2022-10-18T11:05:20;18.80;99.90
15765;DHT22;7983;50.744;7.086;2022-10-18T11:07:48;18.80;99.90
15765;DHT22;7983;50.744;7.086;2022-10-18T11:10:20;18.70;99.90
15765;DHT22;7983;50.744;7.086;2022-10-18T11:13:23;18.70;99.90
15765;DHT22;7983;50.744;7.086;2022-10-18T11:15:59;18.70;99.90
15765;DHT22;7983;50.744;7.086;2022-10-18T11:18:36;18.70;99.90
15765;DHT22;7983;50.744;7.086;2022-10-18T11:21:10;18.70;99.90
15765;DHT22;7983;50.744;7.086;2022-10-18T11:23:43;18.80;99.90
15765;DHT22;7983;50.744;7.086;2022-10-18T11:46:03;18.90;99.90
15765;DHT22;7983;50.744;7.086;2022-10-18T11:49:05;19.00;99.90
15765;DHT22;7983;50.744;7.086;2022-10-18T11:51:52;19.10;99.90
15765;DHT22;7983;50.744;7.086;2022-10-18T11:54:30;19.10;99.90
15765;DHT22;7983;50.744;7.086;2022-10-18T12:05:23;19.40;99.90
15765;DHT22;7983;50.744;7.086;2022-10-18T12:07:57;19.40;99.90
15765;DHT22;7983;50.744;7.086;2022-10-18T12:10:28;19.40;99.90
15765;DHT22;7983;50.744;7.086;2022-10-18T12:13:02;19.50;99.90
15765;DHT22;7983;50.744;7.086;2022-10-18T12:15:33;19.50;99.90
15765;DHT22;7983;50.744;7.086;2022-10-18T12:18:15;19.60;99.90
15765;DHT22;7983;50.744;7.086;2022-10-18T12:20:47;19.60;99.90
15765;DHT22;7983;50.744;7.086;2022-10-18T12:23:32;19.70;99.90
15765;DHT22;7983;50.744;7.086;2022-10-18T12:26:05;19.70;99.90
15765;DHT22;7983;50.744;7.086;2022-10-18T12:28:48;19.70;99.90
15765;DHT22;7983;50.744;7.086;2022-10-18T12:33:47;19.80;99.90
15765;DHT22;7983;50.744;7.086;2022-10-18T12:38:56;19.80;99.90
15765;DHT22;7983;50.744;7.086;2022-10-18T12:41:32;19.80;99.90
15765;DHT22;7983;50.744;7.086;2022-10-18T12:44:03;19.80;99.90
15765;DHT22;7983;50.744;7.086;2022-10-18T12:46:52;19.80;99.90
15765;DHT22;7983;50.744;7.086;2022-10-18T12:49:38;19.80;99.90
15765;DHT22;7983;50.744;7.086;2022-10-18T12:52:06;19.80;99.90
15765;DHT22;7983;50.744;7.086;2022-10-18T13:18:57;20.70;99.90
15765;DHT22;7983;50.744;7.086;2022-10-18T13:41:14;22.40;99.90
15765;DHT22;7983;50.744;7.086;2022-10-18T13:59:35;22.50;99.90
15765;DHT22;7983;50.744;7.086;2022-10-18T14:09:04;22.00;99.90
15765;DHT22;7983;50.744;7.086;2022-10-18T14:18:49;21.40;99.90
15765;DHT22;7983;50.744;7.086;2022-10-18T14:21:23;21.30;99.90
15765;DHT22;7983;50.744;7.086;2022-10-18T14:23:53;21.30;99.90
15765;DHT22;7983;50.744;7.086;2022-10-18T14:26:19;21.30;99.90
15765;DHT22;7983;50.744;7.086;2022-10-18T14:29:04;21.40;99.90
15765;DHT22;7983;50.744;7.086;2022-10-18T14:31:33;21.40;99.90
15765;DHT22;7983;50.744;7.086;2022-10-18T14:33:59;21.40;99.90
15765;DHT22;7983;50.744;7.086;2022-10-18T14:36:28;21.40;99.90
15765;DHT22;7983;50.744;7.086;2022-10-18T14:39:06;21.50;99.90
15765;DHT22;7983;50.744;7.086;2022-10-18T14:41:52;21.40;99.90
15765;DHT22;7983;50.744;7.086;2022-10-18T14:44:23;21.30;99.90
15765;DHT22;7983;50.744;7.086;2022-10-18T14:47:15;21.20;99.90
15765;DHT22;7983;50.744;7.086;2022-10-18T14:49:43;21.00;99.90
15765;DHT22;7983;50.744;7.086;2022-10-18T14:52:14;20.90;99.90
15765;DHT22;7983;50.744;7.086;2022-10-18T14:54:43;20.80;99.90
15765;DHT22;7983;50.744;7.086;2022-10-18T14:57:17;20.70;99.90
15765;DHT22;7983;50.744;7.086;2022-10-18T14:59:49;20.60;99.90
15765;DHT22;7983;50.744;7.086;2022-10-18T15:02:22;20.50;99.90
15765;DHT22;7983;50.744;7.086;2022-10-18T15:05:13;20.40;99.90
15765;DHT22;7983;50.744;7.086;2022-10-18T15:07:46;20.40;99.90
15765;DHT22;7983;50.744;7.086;2022-10-18T15:10:22;20.30;99.90
15765;DHT22;7983;50.744;7.086;2022-10-18T15:12:49;20.30;99.90
15765;DHT22;7983;50.744;7.086;2022-10-18T15:15:27;20.20;99.90
15765;DHT22;7983;50.744;7.086;2022-10-18T15:17:56;20.20;99.90
15765;DHT22;7983;50.744;7.086;2022-10-18T15:20:33;20.20;99.90
15765;DHT22;7983;50.744;7.086;2022-10-18T15:23:26;20.10;99.90
15765;DHT22;7983;50.744;7.086;2022-10-18T15:26:04;20.10;99.90
15765;DHT22;7983;50.744;7.086;2022-10-18T15:28:34;20.00;99.90
15765;DHT22;7983;50.744;7.086;2022-10-18T15:31:01;20.00;99.90
15765;DHT22;7983;50.744;7.086;2022-10-18T15:33:28;20.00;99.90
15765;DHT22;7983;50.744;7.086;2022-10-18T15:36:11;19.90;99.90
15765;DHT22;7983;50.744;7.086;2022-10-18T15:38:46;19.90;99.90
15765;DHT22;7983;50.744;7.086;2022-10-18T15:41:45;19.90;99.90
15765;DHT22;7983;50.744;7.086;2022-10-18T15:46:52;19.80;99.90
15765;DHT22;7983;50.744;7.086;2022-10-18T15:54:37;19.70;99.90
15765;DHT22;7983;50.744;7.086;2022-10-18T15:57:07;19.70;99.90
15765;DHT22;7983;50.744;7.086;2022-10-18T15:59:52;19.70;99.90
15765;DHT22;7983;50.744;7.086;2022-10-18T16:02:19;19.60;99.90
15765;DHT22;7983;50.744;7.086;2022-10-18T16:04:48;19.60;99.90
15765;DHT22;7983;50.744;7.086;2022-10-18T16:07:13;19.50;99.90
15765;DHT22;7983;50.744;7.086;2022-10-18T16:09:39;19.50;99.90
15765;DHT22;7983;50.744;7.086;2022-10-18T16:12:07;19.50;99.90
15765;DHT22;7983;50.744;7.086;2022-10-18T16:14:32;19.40;99.90
15765;DHT22;7983;50.744;7.086;2022-10-18T16:17:01;19.30;99.90
15765;DHT22;7983;50.744;7.086;2022-10-18T16:19:28;19.30;99.90
15765;DHT22;7983;50.744;7.086;2022-10-18T16:21:57;19.20;99.90
15765;DHT22;7983;50.744;7.086;2022-10-18T16:24:23;19.10;99.90
15765;DHT22;7983;50.744;7.086;2022-10-18T16:26:51;19.10;99.90
15765;DHT22;7983;50.744;7.086;2022-10-18T16:29:21;19.00;99.90
15765;DHT22;7983;50.744;7.086;2022-10-18T16:31:50;18.90;99.90
15765;DHT22;7983;50.744;7.086;2022-10-18T16:34:20;18.90;99.90
15765;DHT22;7983;50.744;7.086;2022-10-18T16:36:45;18.80;99.90
15765;DHT22;7983;50.744;7.086;2022-10-18T16:39:16;18.80;99.90
15765;DHT22;7983;50.744;7.086;2022-10-18T16:41:43;18.70;99.90
15765;DHT22;7983;50.744;7.086;2022-10-18T16:44:08;18.60;99.90
15765;DHT22;7983;50.744;7.086;2022-10-18T16:46:37;18.60;99.90
15765;DHT22;7983;50.744;7.086;2022-10-18T16:49:03;18.50;99.90
15765;DHT22;7983;50.744;7.086;2022-10-18T16:51:29;18.50;99.90
15765;DHT22;7983;50.744;7.086;2022-10-18T16:53:55;18.40;99.90
15765;DHT22;7983;50.744;7.086;2022-10-18T16:56:25;18.30;99.90
15765;DHT22;7983;50.744;7.086;2022-10-18T16:58:54;18.30;99.90
15765;DHT22;7983;50.744;7.086;2022-10-18T17:01:23;18.30;99.90
15765;DHT22;7983;50.744;7.086;2022-10-18T17:03:49;18.20;99.90
15765;DHT22;7983;50.744;7.086;2022-10-18T17:06:24;18.10;99.90
15765;DHT22;7983;50.744;7.086;2022-10-18T17:08:51;18.00;99.90
15765;DHT22;7983;50.744;7.086;2022-10-18T17:11:21;18.00;99.90
15765;DHT22;7983;50.744;7.086;2022-10-18T17:13:50;17.90;99.90
15765;DHT22;7983;50.744;7.086;2022-10-18T17:16:31;17.90;99.90
15765;DHT22;7983;50.744;7.086;2022-10-18T17:19:02;17.80;99.90
15765;DHT22;7983;50.744;7.086;2022-10-18T17:21:31;17.70;99.90
15765;DHT22;7983;50.744;7.086;2022-10-18T17:23:59;17.70;99.90
15765;DHT22;7983;50.744;7.086;2022-10-18T17:26:28;17.60;99.90
15765;DHT22;7983;50.744;7.086;2022-10-18T17:29:04;17.50;99.90
15765;DHT22;7983;50.744;7.086;2022-10-18T17:31:30;17.50;99.90
15765;DHT22;7983;50.744;7.086;2022-10-18T17:33:58;17.40;99.90
15765;DHT22;7983;50.744;7.086;2022-10-18T17:36:29;17.40;99.90
15765;DHT22;7983;50.744;7.086;2022-10-18T17:38:56;17.30;99.90
15765;DHT22;7983;50.744;7.086;2022-10-18T17:41:22;17.30;99.90
15765;DHT22;7983;50.744;7.086;2022-10-18T17:43:47;17.20;99.90
15765;DHT22;7983;50.744;7.086;2022-10-18T17:46:13;17.10;99.90
15765;DHT22;7983;50.744;7.086;2022-10-18T17:48:40;17.10;99.90
15765;DHT22;7983;50.744;7.086;2022-10-18T17:51:10;17.00;99.90
15765;DHT22;7983;50.744;7.086;2022-10-18T17:53:36;17.00;99.90
15765;DHT22;7983;50.744;7.086;2022-10-18T17:56:05;16.90;99.90
15765;DHT22;7983;50.744;7.086;2022-10-18T17:58:32;16.90;99.90
15765;DHT22;7983;50.744;7.086;2022-10-18T18:01:16;16.80;99.90
15765;DHT22;7983;50.744;7.086;2022-10-18T18:03:42;16.80;99.90
15765;DHT22;7983;50.744;7.086;2022-10-18T18:06:15;16.70;99.90
15765;DHT22;7983;50.744;7.086;2022-10-18T18:08:41;16.70;99.90
15765;DHT22;7983;50.744;7.086;2022-10-18T18:11:06;16.60;99.90
15765;DHT22;7983;50.744;7.086;2022-10-18T18:13:37;16.60;99.90
15765;DHT22;7983;50.744;7.086;2022-10-18T18:16:29;16.50;99.90
15765;DHT22;7983;50.744;7.086;2022-10-18T18:18:56;16.50;99.90
15765;DHT22;7983;50.744;7.086;2022-10-18T18:21:23;16.40;99.90
15765;DHT22;7983;50.744;7.086;2022-10-18T18:23:50;16.40;99.90
15765;DHT22;7983;50.744;7.086;2022-10-18T18:26:16;16.40;99.90
15765;DHT22;7983;50.744;7.086;2022-10-18T18:28:42;16.30;99.90
15765;DHT22;7983;50.744;7.086;2022-10-18T18:31:17;16.30;99.90
15765;DHT22;7983;50.744;7.086;2022-10-18T18:33:44;16.30;99.90
15765;DHT22;7983;50.744;7.086;2022-10-18T18:36:35;16.20;99.90
15765;DHT22;7983;50.744;7.086;2022-10-18T18:39:06;16.10;99.90
15765;DHT22;7983;50.744;7.086;2022-10-18T18:41:33;16.20;99.90
15765;DHT22;7983;50.744;7.086;2022-10-18T18:44:03;16.10;99.90
15765;DHT22;7983;50.744;7.086;2022-10-18T18:46:31;16.10;99.90
15765;DHT22;7983;50.744;7.086;2022-10-18T18:49:04;16.00;99.90
15765;DHT22;7983;50.744;7.086;2022-10-18T18:51:30;16.00;99.90
15765;DHT22;7983;50.744;7.086;2022-10-18T18:53:57;16.00;99.90
15765;DHT22;7983;50.744;7.086;2022-10-18T18:58:58;15.90;99.90
15765;DHT22;7983;50.744;7.086;2022-10-18T19:01:27;15.90;99.90
15765;DHT22;7983;50.744;7.086;2022-10-18T19:03:54;15.80;99.90
15765;DHT22;7983;50.744;7.086;2022-10-18T19:06:25;15.80;99.90
15765;DHT22;7983;50.744;7.086;2022-10-18T19:08:51;15.80;99.90